createdAt,value
2018-04-19T00:01:13.244Z,10.70
2018-04-19T00:03:40.810Z,11.53
2018-04-19T00:06:08.495Z,8.53
2018-04-19T00:08:36.106Z,9.27
2018-04-19T00:11:03.729Z,8.17
2018-04-19T00:13:31.324Z,9.90
2018-04-19T00:15:58.889Z,8.63
2018-04-19T00:18:26.506Z,9.43
2018-04-19T00:20:54.031Z,8.63
2018-04-19T00:23:21.626Z,10.47
2018-04-19T00:25:49.265Z,9.70
2018-04-19T00:28:16.860Z,9.93
2018-04-19T00:30:44.430Z,11.27
2018-04-19T00:33:11.996Z,12.13
2018-04-19T00:35:39.643Z,9.13
2018-04-19T00:38:07.940Z,10.03
2018-04-19T00:40:35.519Z,11.20
2018-04-19T00:43:03.829Z,11.53
2018-04-19T00:45:31.387Z,10.03
2018-04-19T00:47:58.955Z,10.90
2018-04-19T00:50:26.941Z,9.30
2018-04-19T00:53:12.964Z,10.70
2018-04-19T00:55:40.558Z,10.13
2018-04-19T00:58:08.083Z,8.93
2018-04-19T01:00:35.704Z,10.93
2018-04-19T01:03:03.316Z,9.17
2018-04-19T01:05:30.913Z,8.90
2018-04-19T01:07:58.537Z,8.50
2018-04-19T01:10:26.197Z,8.50
2018-04-19T01:12:53.797Z,8.80
2018-04-19T01:15:21.413Z,8.70
2018-04-19T01:17:49.042Z,8.47
2018-04-19T01:20:18.073Z,9.17
2018-04-19T01:22:45.621Z,12.37
2018-04-19T01:25:13.153Z,11.00
2018-04-19T01:27:40.695Z,9.03
2018-04-19T01:30:08.227Z,11.17
2018-04-19T01:32:35.823Z,8.17
2018-04-19T01:35:04.131Z,12.97
2018-04-19T01:37:31.813Z,11.03
2018-04-19T01:39:59.363Z,11.53
2018-04-19T01:42:26.993Z,9.93
2018-04-19T01:44:54.601Z,8.37
2018-04-19T01:47:22.179Z,9.53
2018-04-19T01:49:49.735Z,11.00
2018-04-19T01:52:17.363Z,7.90
2018-04-19T01:54:44.993Z,11.00
2018-04-19T01:57:13.410Z,10.73
2018-04-19T01:59:40.959Z,10.17
2018-04-19T02:02:08.553Z,8.97
2018-04-19T02:04:36.153Z,10.00
2018-04-19T02:07:03.805Z,11.23
2018-04-19T02:09:31.328Z,10.43
2018-04-19T02:11:58.941Z,11.77
2018-04-19T02:14:26.522Z,8.80
2018-04-19T02:16:54.187Z,9.83
2018-04-19T02:19:22.443Z,8.67
2018-04-19T02:21:50.781Z,7.53
2018-04-19T02:24:18.327Z,9.93
2018-04-19T02:26:45.933Z,11.50
2018-04-19T02:29:13.471Z,9.13
2018-04-19T02:31:41.793Z,8.73
2018-04-19T02:34:09.346Z,9.57
2018-04-19T02:36:37.687Z,10.57
2018-04-19T02:39:05.261Z,9.10
2018-04-19T02:41:32.821Z,9.33
2018-04-19T02:44:00.437Z,10.10
2018-04-19T02:46:27.941Z,8.00
2018-04-19T02:48:55.552Z,9.00
2018-04-19T02:51:23.105Z,7.80
2018-04-19T02:53:50.662Z,9.63
2018-04-19T02:56:18.229Z,9.03
2018-04-19T02:58:45.837Z,9.03
2018-04-19T03:01:13.656Z,8.87
2018-04-19T03:03:41.205Z,9.50
2018-04-19T03:06:08.730Z,8.43
2018-04-19T03:08:36.332Z,9.37
2018-04-19T03:11:03.867Z,8.90
2018-04-19T03:13:32.216Z,11.93
2018-04-19T03:15:59.734Z,10.50
2018-04-19T03:18:27.320Z,11.73
2018-04-19T03:20:55.648Z,10.47
2018-04-19T03:23:24.128Z,13.00
2018-04-19T03:25:51.668Z,9.57
2018-04-19T03:28:19.207Z,9.47
2018-04-19T03:30:46.821Z,9.37
2018-04-19T03:33:15.247Z,10.00
2018-04-19T03:35:42.844Z,10.43
2018-04-19T03:38:11.156Z,9.47
2018-04-19T03:40:38.729Z,9.70
2018-04-19T03:43:07.049Z,9.63
2018-04-19T03:45:34.690Z,8.77
2018-04-19T03:48:02.212Z,10.60
2018-04-19T03:50:29.826Z,8.83
2018-04-19T03:52:58.179Z,12.77
2018-04-19T03:55:25.834Z,9.73
2018-04-19T03:57:53.439Z,9.40
2018-04-19T04:00:21.079Z,11.80
2018-04-19T04:02:48.638Z,9.30
2018-04-19T04:05:16.201Z,11.07
2018-04-19T04:07:44.516Z,9.30
2018-04-19T04:10:14.973Z,9.27
2018-04-19T04:12:42.616Z,12.20
2018-04-19T04:15:10.192Z,9.97
2018-04-19T04:17:49.660Z,10.77
2018-04-19T04:20:29.027Z,9.17
2018-04-19T04:23:09.253Z,9.63
2018-04-19T04:25:36.805Z,12.90
2018-04-19T04:28:04.350Z,9.63
2018-04-19T04:30:31.896Z,13.97
2018-04-19T04:32:59.474Z,14.90
2018-04-19T04:35:27.085Z,11.20
2018-04-19T04:37:54.693Z,11.93
2018-04-19T04:40:22.273Z,14.43
2018-04-19T04:42:49.864Z,10.73
2018-04-19T04:45:18.177Z,12.00
2018-04-19T04:47:45.733Z,12.50
2018-04-19T04:50:13.273Z,10.27
2018-04-19T04:52:40.852Z,10.00
2018-04-19T04:55:08.565Z,10.40
2018-04-19T04:57:36.120Z,10.43
2018-04-19T05:00:03.732Z,9.83
2018-04-19T05:02:32.047Z,13.23
2018-04-19T05:04:59.624Z,17.57
2018-04-19T05:07:28.012Z,13.87
2018-04-19T05:09:55.573Z,11.10
2018-04-19T05:12:23.892Z,15.50
2018-04-19T05:14:51.538Z,11.23
2018-04-19T05:17:19.096Z,9.83
2018-04-19T05:19:46.686Z,16.77
2018-04-19T05:22:14.231Z,11.63
2018-04-19T05:24:41.877Z,11.30
2018-04-19T05:27:09.462Z,11.73
2018-04-19T05:29:37.084Z,11.13
2018-04-19T05:32:04.621Z,16.57
2018-04-19T05:34:32.241Z,16.00
2018-04-19T05:36:59.781Z,13.60
2018-04-19T05:39:27.357Z,17.07
2018-04-19T05:41:54.934Z,14.17
2018-04-19T05:44:22.561Z,11.10
2018-04-19T05:46:50.097Z,13.97
2018-04-19T05:49:17.687Z,12.03
2018-04-19T05:51:45.232Z,11.23
2018-04-19T05:54:13.581Z,10.60
2018-04-19T05:56:41.132Z,14.37
2018-04-19T05:59:09.486Z,12.73
2018-04-19T06:01:37.096Z,9.47
2018-04-19T06:04:05.407Z,10.67
2018-04-19T06:06:33.046Z,15.30
2018-04-19T06:09:00.611Z,13.03
2018-04-19T06:11:28.199Z,14.57
2018-04-19T06:13:56.032Z,14.07
2018-04-19T06:16:23.694Z,11.50
2018-04-19T06:18:51.282Z,11.67
2018-04-19T06:21:18.892Z,14.90
2018-04-19T06:23:47.644Z,14.17
2018-04-19T06:26:15.873Z,15.63
2018-04-19T06:28:44.215Z,13.73
2018-04-19T06:31:11.849Z,10.03
2018-04-19T06:33:39.464Z,14.37
2018-04-19T06:36:07.125Z,16.37
2018-04-19T06:38:35.420Z,12.43
2018-04-19T06:41:02.960Z,15.10
2018-04-19T06:43:31.299Z,12.30
2018-04-19T06:45:58.892Z,15.23
2018-04-19T06:48:26.496Z,12.77
2018-04-19T06:50:54.038Z,16.87
2018-04-19T06:53:21.632Z,12.70
2018-04-19T06:55:49.157Z,15.43
2018-04-19T06:58:16.718Z,10.40
2018-04-19T07:00:44.276Z,19.87
2018-04-19T07:03:11.824Z,21.17
2018-04-19T07:05:39.362Z,18.63
2018-04-19T07:08:07.680Z,20.20
2018-04-19T07:10:35.202Z,19.17
2018-04-19T07:13:02.833Z,15.90
2018-04-19T07:15:30.404Z,16.20
2018-04-19T07:17:57.940Z,17.03
2018-04-19T07:20:25.569Z,17.37
2018-04-19T07:22:53.109Z,17.73
2018-04-19T07:25:20.700Z,16.23
2018-04-19T07:27:48.312Z,16.67
2018-04-19T07:30:15.866Z,18.65
2018-04-19T07:32:43.398Z,17.67
2018-04-19T07:35:10.971Z,13.90
2018-04-19T07:37:38.488Z,17.90
2018-04-19T07:40:06.088Z,18.47
2018-04-19T07:42:33.634Z,18.47
2018-04-19T07:45:01.218Z,16.90
2018-04-19T07:47:29.510Z,19.40
2018-04-19T07:49:57.106Z,16.53
2018-04-19T07:52:24.704Z,16.93
2018-04-19T07:54:52.336Z,20.13
2018-04-19T07:57:19.915Z,18.77
2018-04-19T07:59:47.448Z,20.43
2018-04-19T08:02:15.046Z,22.60
2018-04-19T08:04:42.600Z,20.30
2018-04-19T08:07:10.218Z,22.90
2018-04-19T08:09:37.778Z,21.60
2018-04-19T08:12:06.148Z,16.83
2018-04-19T08:14:33.692Z,20.40
2018-04-19T08:17:01.287Z,15.63
2018-04-19T08:19:28.816Z,15.40
2018-04-19T08:21:57.177Z,16.00
2018-04-19T08:24:24.689Z,20.97
2018-04-19T08:26:52.289Z,22.23
2018-04-19T08:29:19.828Z,19.40
2018-04-19T08:31:47.381Z,18.90
2018-04-19T08:34:14.924Z,20.77
2018-04-19T08:36:42.496Z,15.40
2018-04-19T08:39:10.052Z,18.90
2018-04-19T08:41:37.587Z,17.20
2018-04-19T08:44:05.166Z,18.17
2018-04-19T08:46:32.728Z,18.57
2018-04-19T08:49:00.346Z,15.43
2018-04-19T08:51:27.887Z,15.40
2018-04-19T08:53:55.712Z,16.37
2018-04-19T08:56:23.233Z,14.07
2018-04-19T08:58:50.822Z,14.87
2018-04-19T09:01:20.000Z,16.47
2018-04-19T09:03:47.552Z,14.60
2018-04-19T09:06:15.142Z,12.40
2018-04-19T09:08:42.833Z,16.17
2018-04-19T09:11:10.408Z,18.03
2018-04-19T09:13:38.110Z,16.40
2018-04-19T09:16:05.693Z,9.43
2018-04-19T09:18:33.238Z,16.73
2018-04-19T09:21:00.857Z,13.33
2018-04-19T09:23:28.413Z,19.07
2018-04-19T09:25:56.040Z,13.90
2018-04-19T09:28:23.582Z,13.53
2018-04-19T09:30:52.003Z,13.03
2018-04-19T09:33:19.547Z,13.27
2018-04-19T09:35:47.184Z,14.97
2018-04-19T09:38:15.532Z,11.83
2018-04-19T09:40:43.676Z,16.00
2018-04-19T09:43:11.249Z,16.03
2018-04-19T09:45:38.815Z,15.97
2018-04-19T09:48:06.360Z,12.37
2018-04-19T09:50:33.909Z,15.53
2018-04-19T09:53:01.982Z,13.40
2018-04-19T09:55:29.596Z,16.43
2018-04-19T09:58:09.039Z,14.20
2018-04-19T10:00:42.988Z,19.77
2018-04-19T10:03:16.222Z,19.63
2018-04-19T10:05:48.335Z,14.27
2018-04-19T10:08:15.871Z,14.63
2018-04-19T10:10:44.161Z,16.87
2018-04-19T10:13:11.722Z,13.30
2018-04-19T10:15:39.244Z,15.03
2018-04-19T10:18:06.783Z,20.03
2018-04-19T10:20:35.066Z,17.70
2018-04-19T10:23:02.652Z,18.00
2018-04-19T10:25:30.172Z,15.77
2018-04-19T10:27:57.725Z,10.97
2018-04-19T10:30:25.248Z,15.90
2018-04-19T10:32:53.561Z,12.40
2018-04-19T10:35:21.847Z,17.53
2018-04-19T10:37:49.497Z,14.27
2018-04-19T10:40:17.008Z,15.93
2018-04-19T10:42:44.555Z,13.63
2018-04-19T10:45:12.075Z,10.17
2018-04-19T10:47:39.628Z,13.83
2018-04-19T10:50:07.176Z,14.07
2018-04-19T10:52:34.760Z,12.90
2018-04-19T10:55:02.324Z,14.30
2018-04-19T10:57:29.926Z,10.27
2018-04-19T10:59:58.234Z,16.50
2018-04-19T11:02:25.768Z,13.70
2018-04-19T11:04:53.340Z,14.83
2018-04-19T11:07:20.889Z,11.80
2018-04-19T11:09:49.233Z,11.70
2018-04-19T11:12:16.771Z,13.07
2018-04-19T11:14:44.354Z,14.73
2018-04-19T11:17:12.471Z,14.13
2018-04-19T11:19:40.037Z,13.50
2018-04-19T11:22:07.571Z,12.53
2018-04-19T11:24:35.907Z,12.80
2018-04-19T11:27:03.923Z,9.03
2018-04-19T11:29:32.269Z,11.60
2018-04-19T11:31:59.794Z,11.43
2018-04-19T11:34:27.358Z,14.17
2018-04-19T11:36:54.927Z,15.17
2018-04-19T11:39:22.480Z,9.80
2018-04-19T11:41:50.007Z,13.43
2018-04-19T11:44:17.558Z,9.33
2018-04-19T11:46:45.876Z,10.70
2018-04-19T11:49:13.388Z,14.23
2018-04-19T11:51:40.941Z,11.60
2018-04-19T11:54:08.502Z,12.10
2018-04-19T11:56:36.059Z,13.53
2018-04-19T11:59:03.570Z,10.50
2018-04-19T12:01:31.124Z,17.30
2018-04-19T12:03:58.638Z,12.97
2018-04-19T12:06:26.187Z,11.50
2018-04-19T12:08:53.704Z,12.23
2018-04-19T12:11:21.264Z,11.87
2018-04-19T12:13:48.767Z,15.83
2018-04-19T12:16:16.326Z,13.73
2018-04-19T12:18:43.835Z,10.03
2018-04-19T12:21:11.376Z,10.73
2018-04-19T12:23:38.878Z,9.83
2018-04-19T12:26:06.452Z,10.23
2018-04-19T12:28:33.960Z,8.13
2018-04-19T12:31:01.484Z,10.60
2018-04-19T12:33:29.028Z,10.57
2018-04-19T12:35:56.533Z,13.43
2018-04-19T12:38:24.072Z,12.97
2018-04-19T12:40:52.359Z,10.73
2018-04-19T12:43:20.682Z,9.73
2018-04-19T12:45:48.191Z,13.03
2018-04-19T12:48:15.778Z,12.03
2018-04-19T12:50:43.299Z,8.43
2018-04-19T12:53:10.843Z,11.37
2018-04-19T12:55:38.361Z,9.03
2018-04-19T12:58:06.672Z,7.37
2018-04-19T13:00:34.192Z,7.70
2018-04-19T13:03:01.736Z,11.07
2018-04-19T13:05:29.244Z,8.77
2018-04-19T13:07:56.822Z,7.40
2018-04-19T13:10:24.396Z,9.87
2018-04-19T13:12:51.898Z,7.13
2018-04-19T13:15:19.420Z,5.73
2018-04-19T13:17:47.694Z,3.03
2018-04-19T13:20:16.022Z,4.37
2018-04-19T13:22:43.534Z,7.63
2018-04-19T13:25:11.836Z,5.50
2018-04-19T13:27:39.372Z,5.37
2018-04-19T13:30:06.945Z,4.17
2018-04-19T13:32:34.475Z,4.93
2018-04-19T13:35:02.024Z,4.97
2018-04-19T13:37:29.523Z,5.37
2018-04-19T13:39:57.076Z,6.70
2018-04-19T13:42:24.603Z,7.10
2018-04-19T13:44:52.985Z,6.10
2018-04-19T13:47:20.512Z,5.83
2018-04-19T13:49:48.059Z,5.77
2018-04-19T13:52:15.584Z,6.30
2018-04-19T13:54:43.919Z,4.63
2018-04-19T13:57:11.424Z,5.13
2018-04-19T13:59:38.936Z,4.80
2018-04-19T14:02:06.525Z,8.13
2018-04-19T14:04:34.005Z,3.93
2018-04-19T14:07:01.570Z,9.23
2018-04-19T14:09:29.076Z,3.83
2018-04-19T14:11:56.619Z,6.53
2018-04-19T14:14:24.900Z,4.87
2018-04-19T14:16:52.444Z,8.67
2018-04-19T14:19:19.948Z,6.43
2018-04-19T14:21:47.498Z,8.43
2018-04-19T14:24:15.006Z,5.47
2018-04-19T14:26:42.549Z,6.30
2018-04-19T14:29:10.070Z,4.53
2018-04-19T14:31:38.062Z,4.33
2018-04-19T14:34:06.339Z,6.63
2018-04-19T14:36:33.871Z,6.93
2018-04-19T14:39:01.379Z,3.83
2018-04-19T14:41:28.939Z,7.53
2018-04-19T14:43:56.446Z,5.47
2018-04-19T14:46:23.956Z,7.73
2018-04-19T14:48:51.488Z,3.83
2018-04-19T14:51:18.989Z,3.50
2018-04-19T14:53:46.532Z,4.37
2018-04-19T14:56:14.150Z,4.00
2018-04-19T14:58:41.692Z,3.83
2018-04-19T15:01:09.200Z,3.73
2018-04-19T15:03:36.740Z,4.27
2018-04-19T15:06:04.228Z,5.73
2018-04-19T15:08:31.764Z,7.03
2018-04-19T15:10:59.284Z,4.10
2018-04-19T15:13:26.834Z,3.10
2018-04-19T15:15:54.338Z,5.17
2018-04-19T15:18:21.883Z,5.90
2018-04-19T15:20:49.391Z,3.73
2018-04-19T15:23:16.947Z,6.97
2018-04-19T15:25:44.503Z,5.07
2018-04-19T15:28:12.077Z,6.07
2018-04-19T15:30:39.597Z,9.37
2018-04-19T15:33:07.924Z,2.70
2018-04-19T15:35:35.434Z,3.23
2018-04-19T15:38:02.932Z,3.47
2018-04-19T15:40:30.483Z,5.10
2018-04-19T15:42:58.000Z,3.13
2018-04-19T15:45:25.531Z,4.03
2018-04-19T15:47:53.321Z,4.43
2018-04-19T15:50:21.232Z,5.07
2018-04-19T15:52:48.812Z,2.03
2018-04-19T15:55:16.360Z,4.17
2018-04-19T15:57:43.880Z,8.27
2018-04-19T16:00:11.428Z,2.93
2018-04-19T16:02:38.952Z,3.47
2018-04-19T16:05:06.496Z,4.70
2018-04-19T16:07:34.013Z,2.47
2018-04-19T16:10:01.579Z,2.43
2018-04-19T16:12:29.098Z,7.23
2018-04-19T16:14:57.404Z,8.83
2018-04-19T16:17:24.917Z,3.17
2018-04-19T16:19:52.467Z,4.30
2018-04-19T16:22:19.984Z,2.83
2018-04-19T16:24:47.600Z,2.70
2018-04-19T16:27:15.079Z,3.10
2018-04-19T16:29:42.658Z,8.80
2018-04-19T16:32:10.178Z,2.77
2018-04-19T16:34:38.555Z,2.57
2018-04-19T16:37:06.098Z,3.27
2018-04-19T16:39:33.798Z,6.37
2018-04-19T16:42:01.343Z,6.03
2018-04-19T16:44:29.592Z,4.23
2018-04-19T16:46:57.127Z,2.23
2018-04-19T16:49:24.634Z,5.03
2018-04-19T16:51:52.171Z,4.40
2018-04-19T16:54:19.688Z,4.70
2018-04-19T16:56:47.220Z,5.97
2018-04-19T16:59:14.735Z,19.20
2018-04-19T17:01:43.050Z,16.70
2018-04-19T17:04:10.568Z,15.67
2018-04-19T17:06:38.910Z,24.27
2018-04-19T17:09:06.924Z,20.93
2018-04-19T17:11:34.499Z,19.90
2018-04-19T17:14:02.011Z,17.80
2018-04-19T17:16:29.584Z,20.37
2018-04-19T17:18:57.108Z,10.33
2018-04-19T17:21:24.622Z,16.00
2018-04-19T17:23:52.163Z,21.50
2018-04-19T17:26:20.460Z,11.27
2018-04-19T17:28:48.014Z,22.63
2018-04-19T17:31:15.537Z,7.83
2018-04-19T17:33:43.096Z,16.40
2018-04-19T17:36:10.620Z,13.17
2018-04-19T17:38:38.178Z,18.67
2018-04-19T17:41:05.679Z,8.50
2018-04-19T17:43:33.241Z,3.03
2018-04-19T17:46:00.762Z,7.57
2018-04-19T17:48:28.297Z,6.40
2018-04-19T17:50:55.810Z,3.07
2018-04-19T17:53:23.351Z,5.87
2018-04-19T17:55:50.858Z,4.23
2018-04-19T17:58:19.164Z,3.23
2018-04-19T18:00:46.708Z,3.60
2018-04-19T18:03:14.233Z,3.03
2018-04-19T18:05:41.784Z,6.53
2018-04-19T18:08:09.340Z,3.37
2018-04-19T18:10:36.839Z,9.83
2018-04-19T18:13:04.339Z,7.67
2018-04-19T18:15:31.899Z,7.70
2018-04-19T18:17:59.408Z,7.40
2018-04-19T18:20:27.716Z,3.97
2018-04-19T18:22:55.226Z,5.27
2018-04-19T18:25:22.767Z,4.43
2018-04-19T18:27:50.309Z,12.33
2018-04-19T18:30:17.836Z,6.03
2018-04-19T18:32:45.355Z,5.00
2018-04-19T18:35:12.908Z,4.73
2018-04-19T18:37:40.407Z,7.23
2018-04-19T18:40:07.939Z,4.27
2018-04-19T18:42:35.468Z,5.83
2018-04-19T18:45:03.008Z,6.97
2018-04-19T18:47:30.518Z,5.40
2018-04-19T18:49:58.814Z,7.97
2018-04-19T18:52:27.087Z,4.57
2018-04-19T18:54:55.410Z,6.47
2018-04-19T18:57:22.931Z,7.20
2018-04-19T18:59:50.441Z,6.90
2018-04-19T19:02:17.973Z,7.53
2018-04-19T19:04:45.492Z,4.93
2018-04-19T19:07:13.031Z,4.43
2018-04-19T19:09:40.536Z,5.63
2018-04-19T19:12:08.077Z,5.23
2018-04-19T19:14:35.587Z,5.20
2018-04-19T19:17:14.985Z,4.77
2018-04-19T19:19:54.209Z,7.67
2018-04-19T19:22:21.752Z,9.23
2018-04-19T19:24:50.044Z,6.20
2018-04-19T19:27:18.356Z,6.03
2018-04-19T19:29:45.869Z,7.60
2018-04-19T19:32:13.440Z,5.00
2018-04-19T19:34:40.929Z,6.00
2018-04-19T19:37:08.468Z,7.17
2018-04-19T19:39:35.984Z,14.40
2018-04-19T19:42:03.531Z,8.27
2018-04-19T19:44:31.051Z,9.33
2018-04-19T19:46:58.601Z,5.63
2018-04-19T19:49:26.116Z,6.93
2018-04-19T19:51:53.656Z,6.20
2018-04-19T19:54:21.157Z,6.57
2018-04-19T19:56:48.703Z,5.20
2018-04-19T19:59:16.218Z,8.27
2018-04-19T20:01:43.770Z,5.83
2018-04-19T20:04:11.309Z,5.70
2018-04-19T20:06:38.844Z,5.63
2018-04-19T20:09:06.349Z,9.07
2018-04-19T20:11:33.898Z,7.17
2018-04-19T20:14:01.402Z,7.23
2018-04-19T20:16:28.947Z,7.27
2018-04-19T20:18:56.460Z,4.47
2018-04-19T20:21:24.012Z,9.77
2018-04-19T20:23:51.524Z,6.20
2018-04-19T20:26:19.059Z,8.47
2018-04-19T20:28:46.612Z,6.43
2018-04-19T20:31:14.123Z,6.03
2018-04-19T20:33:41.667Z,5.77
2018-04-19T20:36:09.167Z,5.27
2018-04-19T20:38:36.716Z,4.77
2018-04-19T20:41:04.227Z,5.90
2018-04-19T20:43:31.775Z,5.40
2018-04-19T20:45:59.289Z,5.97
2018-04-19T20:48:26.823Z,7.93
2018-04-19T20:50:54.333Z,6.23
2018-04-19T20:53:21.877Z,6.73
2018-04-19T20:55:49.383Z,6.03
2018-04-19T20:58:16.949Z,10.17
2018-04-19T21:00:44.447Z,7.20
2018-04-19T21:03:12.002Z,10.10
2018-04-19T21:05:39.509Z,10.27
2018-04-19T21:08:07.055Z,9.97
2018-04-19T21:10:35.336Z,8.90
2018-04-19T21:13:02.877Z,9.33
2018-04-19T21:15:30.382Z,9.33
2018-04-19T21:17:57.924Z,9.10
2018-04-19T21:20:25.460Z,8.90
2018-04-19T21:22:52.964Z,6.97
2018-04-19T21:25:20.515Z,9.63
2018-04-19T21:27:48.021Z,13.50
2018-04-19T21:30:15.566Z,7.50
2018-04-19T21:32:43.078Z,11.77
2018-04-19T21:35:10.623Z,6.27
2018-04-19T21:37:38.731Z,8.67
2018-04-19T21:40:06.274Z,8.83
2018-04-19T21:42:33.780Z,5.73
2018-04-19T21:45:01.326Z,6.83
2018-04-19T21:47:28.901Z,10.67
2018-04-19T21:49:56.422Z,6.43
2018-04-19T21:52:23.931Z,8.57
2018-04-19T21:54:51.491Z,7.53
2018-04-19T21:57:19.019Z,7.83
2018-04-19T21:59:46.520Z,5.33
2018-04-19T22:02:14.828Z,6.07
2018-04-19T22:04:42.341Z,6.60
2018-04-19T22:07:09.897Z,6.27
2018-04-19T22:09:37.403Z,6.80
2018-04-19T22:12:04.939Z,9.90
2018-04-19T22:14:32.433Z,6.40
2018-04-19T22:16:59.967Z,7.70
2018-04-19T22:19:27.482Z,8.03
2018-04-19T22:21:55.015Z,7.77
2018-04-19T22:24:22.527Z,6.27
2018-04-19T22:26:50.823Z,7.17
2018-04-19T22:29:18.348Z,6.67
2018-04-19T22:31:45.900Z,5.60
2018-04-19T22:34:13.408Z,6.20
2018-04-19T22:36:40.943Z,6.50
2018-04-19T22:39:09.036Z,8.03
2018-04-19T22:41:36.575Z,7.30
2018-04-19T22:44:04.857Z,6.43
2018-04-19T22:46:32.403Z,9.37
2018-04-19T22:48:59.915Z,6.33
2018-04-19T22:51:27.425Z,8.93
2018-04-19T22:53:55.731Z,9.83
2018-04-19T22:56:23.231Z,6.80
2018-04-19T22:58:50.769Z,7.47
2018-04-19T23:01:18.276Z,7.27
2018-04-19T23:03:46.584Z,9.67
2018-04-19T23:06:14.103Z,12.67
2018-04-19T23:08:41.636Z,7.40
2018-04-19T23:11:09.133Z,7.50
2018-04-19T23:13:37.436Z,7.60
2018-04-19T23:16:04.943Z,10.37
2018-04-19T23:18:32.482Z,7.77
2018-04-19T23:20:59.991Z,11.03
2018-04-19T23:23:28.311Z,7.70
2018-04-19T23:25:55.823Z,6.97
2018-04-19T23:28:24.117Z,6.83
2018-04-19T23:30:51.628Z,6.83
2018-04-19T23:33:19.435Z,6.70
2018-04-19T23:35:46.949Z,6.60
2018-04-19T23:38:14.444Z,7.20
2018-04-19T23:40:42.753Z,8.70
2018-04-19T23:43:10.259Z,11.70
2018-04-19T23:45:37.796Z,11.87
2018-04-19T23:48:05.287Z,9.17
2018-04-19T23:50:32.826Z,13.07
2018-04-19T23:53:00.323Z,7.47
2018-04-19T23:55:27.893Z,12.27
2018-04-19T23:57:55.395Z,7.30
